Aérodrome :
LOGIN :

S'inscrire | Disclaimer

   EN    FR    IT 

 










Légende :    VFR   VFR Marginal   IFR   IFR Intensif   IFR Très Intensif
Visi : 
Plafond : 
>= 8 km
>= 3000ft
5 à 8 km
1000 à 3000 ft
1500m à 5 km
500 à 1000 ft
800 à 1500m
200 à 500 ft
< 800m
< 200 ft
Symboles :   Orages  Brouillard  Fortes neiges  Fortes précipitations  Vent > 20 kt
SIGMETs :   Divers  Orages  Givrage  Turbulence  Onde Orograph.  Cendres Volcan.







- Altitude de l'aérodrome : 755 ft
- Code IATA : DRS


EDDC - Dresden Klotzsche

DERNIER METAR :
  • 251520Z 27008KT 220V310 9999 -SHRA FEW010 BKN039CB 03/02 Q1015 TEMPO 29015G30KT SHRA

METARs EXPIRÉS :
  • 251450Z 30007G17KT 260V340 9999 SCT022 BKN041CB 05/01 Q1015 TEMPO 29015G30KT SHGS
  • 251420Z 33008KT 300V010 9999 -SHRA FEW016 BKN041CB 05/01 Q1014 TEMPO 30020G35KT SHGS
  • 251350Z 29014KT 260V320 9999 BKN038CB 07/M00 Q1014 TEMPO 30020G35KT 3000 SHGS
  • 251320Z 28013KT 250V330 9999 SCT038 08/M00 Q1013 TEMPO 30020G35KT 3000 SHGS
  • 251250Z 31013KT 270V340 9999 SCT036 07/M01 Q1013 TEMPO 30020G35KT 3000 SHGS

TAF TAF EDDC
Valide du 25 à 12h jusqu'au 26 à 12h UTC


251100Z 2512/2612 28015G25KT 9999 SCT030
TEMPO 2512/2518 29020G30KT 3000 SHGS BKN013CB
PROB30
TEMPO 2512/2517 29020G40KT 1200 TSGS BKN008CB
BECMG 2515/2518 30008KT
TEMPO 2518/2524 SHRASN BKN012CB
BECMG 2603/2607 4000 BR BKN004
BECMG 2607/2610 29015G25KT 9000 BKN009
BECMG 2610/2612 BKN015
Pas de NOTAMs connus pour ce terrain.



MET'MAP, la Météo Aéronautique d'un coup d'oeil ! - Copyright ORBIFLY Décembre 2007 - Disclaimer

ORBIFLY MET'MAP TEAM :

Programmation & Développement : Alexandra Zaïnal
Conception & Développement : Baudouin d'Aumeries
Co-Programmation & Développement : Marc-Olivier Méhu
Soutien technique & logistique : Manuel Goepfert

Contact : metmap@orbifly.com




SOURCES & CREDITS :

   NOAA